Lewistown, MT

10:15 AM MDT on August 22, 2014 (GMT -0600)
Lewistown Municipal | Change Station
CLOSE
Current Station
Airport
Location: Lewistown,
Elevation: 4167 ft
Nearby Weather Stations

Elev 4167 ft 47.05 °N, 109.47 °W | Updated 21 minutes ago

Light Rain
Light Rain
56 °F
Feels Like 56 °F
N
4
Wind Variable Wind from North

Today
High -- | Low -- °F
--% Chance of Precip.
Yesterday
High -- | Low -- °F
Precip. -- in
6:24 AM 8:16 PM
Waning Crescent, 8% visible
Pressure 30.08 in
Visibility 7.0 miles
Clouds Mostly Cloudy 500 ft
Mostly Cloudy 1200 ft
Overcast 7000 ft
Dew Point 54 °F
Humidity 93%
Rainfall 0.08 in
Snow Depth 1 in
UV 1 out of 12
Pollen 2.20 out of 12
Air Quality Not available.
Flu Activity Not available.
METAR KLWT 221554Z AUTO 01003KT 7SM -RA BKN005 BKN012 OVC070 13/12 A3012 RMK AO2 SLP184 P0005 T01330122

More Conditions Fewer Conditions

Pressure 30.08 in
Visibility 7.0 miles
Clouds Mostly Cloudy 500 ft
Mostly Cloudy 1200 ft
Overcast 7000 ft
Dew Point 54 °F
Humidity 93%
Rainfall 0.08 in
Snow Depth 1 in
UV 1 out of 12
Pollen 2.20 out of 12
Air Quality Not available.
Flu Activity Not available.
METAR KLWT 221554Z AUTO 01003KT 7SM -RA BKN005 BKN012 OVC070 13/12 A3012 RMK AO2 SLP184 P0005 T01330122

More Conditions Fewer Conditions

10-Day Weather Forecast

Almanac

Astronomy

Aug. 22, 2014 Rise Set
Actual Time 6:24 AM MDT 8:16 PM MDT
Civil Twilight 5:51 AM MDT 8:48 PM MDT
Nautical Twilight 5:11 AM MDT 9:28 PM MDT
Astronomical Twilight 4:27 AM MDT 10:12 PM MDT
Moon 3:45 AM MDT 6:30 PM MDT
Length of Visible Light 14h 57m
Length of Day
13h 52m
Tomorrow will be 3m 8s shorter.
Waning Crescent, 8% of the Moon is Illuminated
Today
Waning Crescent
Aug 25
New
Sep 2
First Quarter
Sep 8
Full
Sep 15
Last Quarter

Today's Extremes

State Highs State Lows

Community

WunderPhotos

Upload Photos

1,746,194 photos uploaded!

Nearby

Snow Depth

Station Depth Elevation
Crystal Lake 1 in 6050 ft
Daisy Peak 0 in 7600 ft
Spur Park 0 in 8100 ft
Deadman Creek 0 in 6450 ft
Onion Park 1 in 7410 ft

Earthquake Activity

City Distance Mag. Time & Date
No recent earthquake activity has been reported nearby.
Minimum magnitude displayed is 2.5.

Coastal Water Temperatures

Place Temperature
No Stations Reporting

Nearby Weather Stations